Aérodrome :
LOGIN :

S'inscrire | Disclaimer

   EN    FR    IT 

 










Légende :    VFR   VFR Marginal   IFR   IFR Intensif   IFR Très Intensif
Visi : 
Plafond : 
>= 8 km
>= 3000ft
5 à 8 km
1000 à 3000 ft
1500m à 5 km
500 à 1000 ft
800 à 1500m
200 à 500 ft
< 800m
< 200 ft
Symboles :   Orages  Brouillard  Fortes neiges  Fortes précipitations  Vent > 20 kt
SIGMETs :   Divers  Orages  Givrage  Turbulence  Onde Orograph.  Cendres Volcan.






- Altitude de l'aérodrome : 1822 ft


ETSL - Lechfeld AB

DERNIER METAR :
  • 230820Z 21005KT 9999 FEW020 BKN040 BKN200 19/15 Q1021 BLU BLU

METARs EXPIRÉS :
  • 230720Z 21005KT 9999 FEW015 BKN060 BKN200 19/15 Q1022 BLU BLU
  • 230620Z 25003KT 9999 FEW030 BKN045 BKN200 18/15 Q1021 BLU BLU
  • 230520Z 23003KT 9999 SCT030 SCT045 BKN090 17/16 Q1021 BLU BLU
  • 230420Z 19002KT 9999 SCT030 BKN050 BKN090 16/15 Q1021 BLU BLU

TAF TAF ETSL
Valide du 23 à 08h jusqu'au 23 à 17h UTC


230722Z 2308/2317 25009KT 9999 NSW BKN050 SCT100



MET'MAP, la Météo Aéronautique d'un coup d'oeil ! - Copyright ORBIFLY Décembre 2007 - Disclaimer

ORBIFLY MET'MAP TEAM :

Programmation & Développement : Alexandra Zaïnal
Sur une idée originale de : Baudouin d'Aumeries
Soutien technique & logistique : Manuel Goepfert
Assistance : Marc-Olivier Méhu




SOURCES & CREDITS :

   NOAA